Main page
METAR-TAF:

METAR-TAF

Airports :

Farmington Regional Airport

Farmington, Missouri, United States

latitude: 37-46N, longitude: 090-26W, elevation: 945 ft

Current weather observation

The report was made 13 minutes ago, at 02:56 UTC
Calm wind
Temperature 63°F
Humidity 77%
Pressure 30.09 in. Hg
Visibility: 10 miles
Clear sky

METAR: KFAM 290256Z AUTO 00000KT 10SM CLR 17/13 A3009 RMK AO2 SLP194 T01670128 53003

Time: 22:09 (03:09 UTC)


TAF: missing

Weather observations and forecasts of more than 4000 airports (METAR and TAF reports).

The available stations are represented by yellow and red dots on the map.

Hover mouse over dot to see the name of the station.

Then click to see weather observations and forecasts.

To change the map : click on the green buttons with a black cross to zoom in, on the green button with a dash to zoom out, or on the green arrows for adjacent maps.


METAR-TAF: